createdAt,value
2018-05-13T00:00:03.406Z,23.57
2018-05-13T00:02:30.994Z,19.97
2018-05-13T00:04:58.529Z,22.00
2018-05-13T00:07:26.106Z,19.20
2018-05-13T00:09:54.436Z,22.00
2018-05-13T00:12:22.011Z,23.60
2018-05-13T00:14:49.546Z,22.50
2018-05-13T00:17:17.180Z,21.70
2018-05-13T00:19:45.496Z,20.80
2018-05-13T00:22:13.065Z,21.10
2018-05-13T00:24:40.602Z,21.03
2018-05-13T00:27:08.189Z,21.97
2018-05-13T00:29:35.733Z,23.93
2018-05-13T00:32:03.303Z,22.83
2018-05-13T00:34:30.841Z,22.53
2018-05-13T00:36:58.411Z,21.33
2018-05-13T00:39:25.964Z,21.80
2018-05-13T00:41:53.535Z,22.03
2018-05-13T00:44:21.097Z,22.57
2018-05-13T00:46:48.637Z,24.03
2018-05-13T00:49:16.207Z,23.70
2018-05-13T00:51:43.742Z,24.80
2018-05-13T00:54:23.156Z,22.63
2018-05-13T00:56:50.701Z,22.27
2018-05-13T00:59:18.269Z,21.70
2018-05-13T01:01:45.804Z,25.20
2018-05-13T01:04:13.373Z,23.57
2018-05-13T01:06:40.911Z,21.33
2018-05-13T01:09:08.489Z,21.83
2018-05-13T01:11:36.035Z,22.83
2018-05-13T01:14:03.606Z,24.13
2018-05-13T01:16:31.153Z,25.90
2018-05-13T01:18:58.729Z,24.60
2018-05-13T01:21:26.287Z,23.37
2018-05-13T01:23:53.855Z,24.60
2018-05-13T01:26:21.397Z,24.73
2018-05-13T01:28:48.969Z,21.70
2018-05-13T01:31:16.512Z,23.57
2018-05-13T01:33:44.082Z,27.47
2018-05-13T01:36:11.670Z,22.70
2018-05-13T01:38:39.249Z,26.83
2018-05-13T01:41:06.790Z,26.73
2018-05-13T01:43:34.362Z,21.70
2018-05-13T01:46:01.892Z,25.00
2018-05-13T01:48:29.430Z,23.33
2018-05-13T01:50:56.997Z,21.77
2018-05-13T01:53:24.538Z,25.60
2018-05-13T01:55:52.113Z,28.63
2018-05-13T01:58:19.656Z,24.13
2018-05-13T02:00:47.998Z,23.10
2018-05-13T02:03:15.545Z,26.87
2018-05-13T02:05:43.118Z,23.53
2018-05-13T02:08:10.661Z,23.33
2018-05-13T02:10:38.229Z,24.33
2018-05-13T02:13:05.764Z,24.53
2018-05-13T02:15:33.337Z,24.57
2018-05-13T02:18:00.874Z,20.70
2018-05-13T02:20:28.433Z,20.43
2018-05-13T02:22:55.976Z,23.00
2018-05-13T02:25:24.309Z,24.87
2018-05-13T02:27:51.842Z,22.00
2018-05-13T02:30:19.415Z,22.17
2018-05-13T02:32:46.978Z,21.77
2018-05-13T02:35:14.558Z,20.97
2018-05-13T02:37:42.090Z,22.63
2018-05-13T02:40:09.667Z,20.93
2018-05-13T02:42:37.224Z,21.93
2018-05-13T02:45:04.791Z,20.40
2018-05-13T02:47:32.353Z,21.53
2018-05-13T02:49:59.944Z,21.13
2018-05-13T02:52:27.494Z,21.83
2018-05-13T02:54:55.045Z,19.57
2018-05-13T02:57:22.627Z,19.87
2018-05-13T02:59:50.178Z,21.77
2018-05-13T03:02:17.753Z,21.37
2018-05-13T03:04:45.301Z,24.90
2018-05-13T03:07:12.883Z,18.40
2018-05-13T03:09:40.440Z,19.93
2018-05-13T03:12:08.006Z,22.47
2018-05-13T03:14:36.322Z,21.80
2018-05-13T03:17:03.896Z,20.13
2018-05-13T03:19:31.434Z,22.07
2018-05-13T03:21:59.012Z,20.73
2018-05-13T03:24:26.551Z,21.03
2018-05-13T03:26:54.134Z,19.77
2018-05-13T03:29:21.681Z,22.53
2018-05-13T03:31:49.262Z,23.00
2018-05-13T03:34:16.828Z,21.07
2018-05-13T03:36:44.406Z,20.77
2018-05-13T03:39:11.951Z,20.97
2018-05-13T03:41:39.532Z,23.17
2018-05-13T03:44:07.842Z,22.30
2018-05-13T03:46:35.413Z,21.13
2018-05-13T03:49:02.961Z,23.17
2018-05-13T03:51:30.513Z,21.70
2018-05-13T03:53:58.077Z,21.83
2018-05-13T03:56:26.385Z,21.60
2018-05-13T03:58:53.958Z,22.10
2018-05-13T04:01:21.497Z,22.97
2018-05-13T04:03:49.068Z,21.57
2018-05-13T04:06:16.627Z,23.27
2018-05-13T04:08:55.924Z,21.83
2018-05-13T04:11:36.014Z,26.03
2018-05-13T04:14:15.184Z,22.87
2018-05-13T04:16:42.729Z,22.73
2018-05-13T04:19:10.300Z,20.87
2018-05-13T04:21:37.848Z,22.80
2018-05-13T04:24:05.429Z,22.97
2018-05-13T04:26:32.971Z,21.50
2018-05-13T04:29:00.545Z,21.93
2018-05-13T04:31:28.081Z,26.53
2018-05-13T04:33:55.653Z,22.50
2018-05-13T04:36:23.205Z,23.30
2018-05-13T04:38:50.785Z,22.80
2018-05-13T04:41:18.343Z,25.50
2018-05-13T04:43:45.927Z,24.90
2018-05-13T04:46:13.482Z,23.40
2018-05-13T04:48:41.837Z,26.37
2018-05-13T04:51:09.389Z,23.83
2018-05-13T04:53:36.959Z,24.33
2018-05-13T04:56:04.506Z,23.33
2018-05-13T04:58:32.083Z,23.60
2018-05-13T05:00:59.627Z,23.67
2018-05-13T05:03:27.218Z,24.70
2018-05-13T05:05:54.757Z,24.13
2018-05-13T05:08:22.305Z,26.07
2018-05-13T05:10:49.881Z,23.07
2018-05-13T05:13:17.434Z,24.57
2018-05-13T05:15:45.012Z,23.73
2018-05-13T05:18:12.560Z,28.60
2018-05-13T05:20:40.132Z,24.87
2018-05-13T05:23:07.681Z,25.80
2018-05-13T05:25:35.315Z,24.80
2018-05-13T05:28:02.869Z,25.10
2018-05-13T05:30:30.443Z,24.47
2018-05-13T05:32:57.984Z,26.87
2018-05-13T05:35:25.557Z,25.73
2018-05-13T05:37:53.099Z,27.27
2018-05-13T05:40:20.679Z,27.03
2018-05-13T05:42:48.229Z,27.10
2018-05-13T05:45:15.819Z,24.00
2018-05-13T05:47:43.383Z,24.47
2018-05-13T05:50:10.976Z,25.90
2018-05-13T05:52:39.288Z,24.50
2018-05-13T05:55:06.828Z,26.20
2018-05-13T05:57:35.171Z,25.47
2018-05-13T06:00:02.719Z,28.17
2018-05-13T06:02:30.306Z,27.87
2018-05-13T06:04:57.858Z,27.23
2018-05-13T06:07:25.433Z,26.10
2018-05-13T06:09:53.750Z,26.30
2018-05-13T06:12:21.396Z,24.73
2018-05-13T06:14:48.886Z,25.07
2018-05-13T06:17:16.457Z,25.87
2018-05-13T06:19:44.092Z,25.30
2018-05-13T06:22:11.587Z,26.93
2018-05-13T06:24:39.139Z,24.73
2018-05-13T06:27:06.709Z,24.13
2018-05-13T06:29:34.261Z,24.60
2018-05-13T06:32:01.831Z,26.13
2018-05-13T06:34:29.372Z,25.10
2018-05-13T06:36:56.990Z,25.77
2018-05-13T06:39:24.540Z,25.43
2018-05-13T06:41:52.112Z,25.93
2018-05-13T06:44:19.651Z,27.60
2018-05-13T06:46:47.223Z,24.70
2018-05-13T06:49:14.785Z,27.60
2018-05-13T06:51:43.124Z,25.33
2018-05-13T06:54:10.691Z,24.00
2018-05-13T06:56:38.240Z,26.80
2018-05-13T06:59:05.815Z,25.80
2018-05-13T07:01:33.365Z,24.03
2018-05-13T07:04:00.945Z,29.33
2018-05-13T07:06:28.492Z,27.17
2018-05-13T07:08:56.067Z,26.73
2018-05-13T07:11:23.617Z,26.57
2018-05-13T07:13:51.199Z,25.80
2018-05-13T07:16:18.750Z,25.80
2018-05-13T07:18:46.332Z,28.23
2018-05-13T07:21:14.654Z,26.23
2018-05-13T07:23:42.234Z,26.50
2018-05-13T07:26:09.795Z,29.13
2018-05-13T07:28:37.377Z,27.33
2018-05-13T07:31:04.932Z,28.90
2018-05-13T07:33:32.514Z,28.43
2018-05-13T07:36:00.834Z,26.97
2018-05-13T07:38:28.397Z,27.63
2018-05-13T07:40:55.946Z,27.83
2018-05-13T07:43:23.569Z,25.93
2018-05-13T07:45:51.097Z,25.13
2018-05-13T07:48:18.677Z,26.17
2018-05-13T07:50:46.240Z,25.07
2018-05-13T07:53:13.836Z,27.73
2018-05-13T07:55:41.382Z,26.90
2018-05-13T07:58:08.924Z,24.67
2018-05-13T08:00:36.511Z,26.00
2018-05-13T08:03:04.059Z,25.03
2018-05-13T08:05:31.624Z,25.73
2018-05-13T08:07:59.929Z,26.00
2018-05-13T08:10:27.501Z,27.87
2018-05-13T08:12:55.134Z,28.30
2018-05-13T08:15:22.695Z,27.37
2018-05-13T08:17:50.229Z,26.60
2018-05-13T08:20:17.817Z,24.97
2018-05-13T08:22:45.351Z,24.50
2018-05-13T08:25:12.916Z,25.63
2018-05-13T08:27:41.288Z,24.13
2018-05-13T08:30:08.822Z,26.70
2018-05-13T08:32:36.368Z,25.60
2018-05-13T08:35:03.988Z,26.60
2018-05-13T08:37:31.489Z,26.03
2018-05-13T08:39:59.066Z,25.57
2018-05-13T08:42:26.613Z,24.43
2018-05-13T08:44:54.201Z,24.07
2018-05-13T08:47:21.806Z,26.23
2018-05-13T08:49:49.359Z,23.63
2018-05-13T08:52:16.901Z,23.10
2018-05-13T08:54:45.240Z,22.23
2018-05-13T08:57:12.782Z,22.93
2018-05-13T08:59:40.359Z,22.70
2018-05-13T09:02:07.904Z,23.33
2018-05-13T09:04:35.449Z,22.97
2018-05-13T09:07:03.013Z,25.03
2018-05-13T09:09:30.540Z,23.10
2018-05-13T09:11:58.868Z,22.17
2018-05-13T09:14:26.497Z,21.20
2018-05-13T09:16:53.992Z,22.50
2018-05-13T09:19:21.530Z,23.57
2018-05-13T09:21:49.091Z,23.30
2018-05-13T09:24:16.628Z,22.87
2018-05-13T09:26:44.197Z,22.73
2018-05-13T09:29:11.734Z,24.70
2018-05-13T09:31:39.299Z,24.13
2018-05-13T09:34:06.831Z,21.40
2018-05-13T09:36:34.405Z,22.63
2018-05-13T09:39:01.945Z,22.77
2018-05-13T09:41:29.529Z,21.47
2018-05-13T09:43:57.064Z,22.07
2018-05-13T09:46:24.629Z,23.80
2018-05-13T09:48:52.169Z,19.43
2018-05-13T09:51:19.813Z,23.07
2018-05-13T09:53:47.293Z,20.20
2018-05-13T09:56:14.880Z,21.63
2018-05-13T09:58:42.413Z,18.67
2018-05-13T10:01:09.945Z,18.63
2018-05-13T10:03:37.508Z,18.50
2018-05-13T10:06:05.041Z,17.90
2018-05-13T10:08:33.380Z,18.97
2018-05-13T10:11:00.913Z,17.87
2018-05-13T10:13:28.481Z,17.87
2018-05-13T10:15:56.018Z,18.23
2018-05-13T10:18:23.594Z,17.53
2018-05-13T10:20:51.135Z,17.30
2018-05-13T10:23:19.468Z,18.63
2018-05-13T10:25:47.008Z,16.10
2018-05-13T10:28:14.577Z,15.13
2018-05-13T10:30:42.156Z,15.37
2018-05-13T10:33:09.717Z,19.60
2018-05-13T10:35:37.258Z,18.07
2018-05-13T10:38:04.828Z,14.20
2018-05-13T10:40:32.367Z,14.37
2018-05-13T10:42:59.945Z,15.57
2018-05-13T10:45:27.473Z,16.10
2018-05-13T10:47:55.048Z,18.30
2018-05-13T10:50:22.587Z,16.80
2018-05-13T10:52:50.151Z,16.30
2018-05-13T10:55:17.678Z,18.50
2018-05-13T10:57:45.285Z,17.83
2018-05-13T11:00:12.813Z,16.80
2018-05-13T11:02:41.129Z,14.90
2018-05-13T11:05:08.694Z,17.37
2018-05-13T11:07:36.985Z,15.20
2018-05-13T11:10:04.546Z,17.67
2018-05-13T11:12:32.076Z,17.15
2018-05-13T11:14:59.645Z,17.10
2018-05-13T11:17:27.192Z,12.10
2018-05-13T11:19:54.769Z,14.38
2018-05-13T11:22:22.309Z,12.83
2018-05-13T11:24:49.868Z,12.47
2018-05-13T11:27:17.426Z,12.07
2018-05-13T11:29:44.998Z,12.20
2018-05-13T11:32:12.537Z,12.90
2018-05-13T11:34:40.874Z,11.63
2018-05-13T11:37:08.415Z,15.65
2018-05-13T11:39:35.982Z,12.48
2018-05-13T11:42:03.513Z,12.90
2018-05-13T11:44:31.077Z,12.70
2018-05-13T11:46:58.616Z,11.85
2018-05-13T11:49:26.946Z,11.90
2018-05-13T11:51:54.480Z,11.45
2018-05-13T11:54:22.038Z,11.60
2018-05-13T11:56:49.578Z,12.75
2018-05-13T11:59:17.882Z,14.63
2018-05-13T12:01:45.448Z,13.70
2018-05-13T12:04:12.992Z,12.88
2018-05-13T12:06:40.568Z,12.00
2018-05-13T12:09:08.116Z,13.75
2018-05-13T12:11:35.715Z,13.10
2018-05-13T12:14:03.252Z,12.13
2018-05-13T12:16:30.840Z,10.77
2018-05-13T12:18:58.377Z,10.90
2018-05-13T12:21:25.956Z,12.10
2018-05-13T12:23:53.492Z,10.88
2018-05-13T12:26:21.068Z,12.18
2018-05-13T12:28:48.618Z,11.93
2018-05-13T12:31:16.200Z,11.12
2018-05-13T12:33:43.742Z,10.85
2018-05-13T12:36:11.337Z,11.18
2018-05-13T12:38:38.884Z,10.88
2018-05-13T12:41:06.485Z,10.70
2018-05-13T12:43:35.259Z,12.43
2018-05-13T12:46:02.898Z,10.93
2018-05-13T12:48:30.440Z,10.75
2018-05-13T12:50:58.009Z,12.35
2018-05-13T12:53:25.567Z,11.82
2018-05-13T12:55:53.155Z,13.50
2018-05-13T12:58:20.739Z,10.18
2018-05-13T13:00:49.060Z,8.90
2018-05-13T13:03:16.675Z,11.27
2018-05-13T13:05:44.216Z,8.98
2018-05-13T13:08:11.808Z,8.50
2018-05-13T13:10:39.357Z,11.27
2018-05-13T13:13:06.937Z,8.93
2018-05-13T13:15:34.509Z,9.60
2018-05-13T13:18:03.325Z,18.60
2018-05-13T13:20:32.297Z,10.05
2018-05-13T13:23:00.236Z,11.30
2018-05-13T13:25:27.835Z,8.93
2018-05-13T13:27:56.099Z,11.10
2018-05-13T13:30:24.312Z,8.73
2018-05-13T13:32:53.040Z,10.20
2018-05-13T13:35:22.377Z,9.23
2018-05-13T13:37:50.821Z,8.80
2018-05-13T13:40:18.406Z,9.15
2018-05-13T13:42:45.985Z,8.50
2018-05-13T13:45:13.545Z,9.32
2018-05-13T13:47:41.115Z,7.78
2018-05-13T13:50:08.668Z,8.68
2018-05-13T13:52:36.241Z,7.47
2018-05-13T13:55:03.798Z,7.25
2018-05-13T13:57:31.378Z,9.07
2018-05-13T13:59:58.909Z,10.32
2018-05-13T14:02:26.702Z,8.05
2018-05-13T14:04:54.277Z,8.35
2018-05-13T14:07:22.615Z,8.60
2018-05-13T14:09:50.186Z,7.87
2018-05-13T14:12:17.725Z,7.82
2018-05-13T14:14:46.615Z,8.18
2018-05-13T14:17:14.660Z,8.80
2018-05-13T14:19:43.209Z,8.73
2018-05-13T14:22:10.973Z,7.65
2018-05-13T14:24:38.562Z,8.25
2018-05-13T14:27:06.118Z,7.65
2018-05-13T14:29:33.799Z,8.27
2018-05-13T14:32:01.357Z,7.78
2018-05-13T14:34:28.928Z,8.35
2018-05-13T14:36:57.429Z,8.57
2018-05-13T14:39:25.005Z,7.80
2018-05-13T14:41:52.560Z,9.70
2018-05-13T14:44:20.129Z,8.77
2018-05-13T14:46:47.668Z,7.40
2018-05-13T14:49:15.241Z,7.25
2018-05-13T14:51:42.785Z,8.15
2018-05-13T14:54:10.366Z,7.87
2018-05-13T14:56:37.904Z,8.70
2018-05-13T14:59:05.473Z,8.77
2018-05-13T15:01:33.007Z,7.62
2018-05-13T15:04:00.578Z,6.87
2018-05-13T15:06:28.884Z,8.85
2018-05-13T15:08:56.457Z,9.45
2018-05-13T15:11:23.997Z,10.48
2018-05-13T15:13:51.583Z,6.32
2018-05-13T15:16:20.215Z,5.53
2018-05-13T15:18:47.921Z,7.03
2018-05-13T15:21:15.557Z,8.13
2018-05-13T15:23:43.116Z,8.65
2018-05-13T15:26:10.681Z,10.50
2018-05-13T15:28:38.260Z,7.50
2018-05-13T15:31:05.830Z,7.82
2018-05-13T15:33:33.361Z,6.87
2018-05-13T15:36:00.924Z,6.87
2018-05-13T15:38:28.472Z,6.18
2018-05-13T15:40:56.041Z,7.05
2018-05-13T15:43:23.712Z,5.97
2018-05-13T15:45:51.199Z,6.70
2018-05-13T15:48:18.736Z,5.65
2018-05-13T15:50:46.310Z,7.28
2018-05-13T15:53:13.858Z,6.03
2018-05-13T15:55:41.437Z,6.78
2018-05-13T15:58:09.009Z,5.95
2018-05-13T16:00:37.373Z,6.10
2018-05-13T16:03:04.946Z,5.32
2018-05-13T16:05:32.567Z,6.28
2018-05-13T16:08:00.134Z,7.15
2018-05-13T16:10:27.710Z,7.00
2018-05-13T16:12:55.305Z,6.25
2018-05-13T16:15:23.621Z,6.25
2018-05-13T16:17:51.545Z,9.82
2018-05-13T16:20:19.084Z,6.95
2018-05-13T16:22:47.198Z,7.12
2018-05-13T16:25:14.833Z,8.25
2018-05-13T16:27:42.753Z,9.18
2018-05-13T16:30:10.889Z,7.40
2018-05-13T16:32:38.428Z,8.55
2018-05-13T16:35:06.014Z,7.57
2018-05-13T16:37:34.503Z,8.27
2018-05-13T16:40:02.818Z,7.07
2018-05-13T16:42:31.216Z,8.88
2018-05-13T16:44:58.768Z,10.13
2018-05-13T16:47:26.351Z,10.75
2018-05-13T16:49:53.902Z,13.43
2018-05-13T16:52:21.506Z,12.47
2018-05-13T16:54:49.080Z,13.60
2018-05-13T16:57:16.968Z,12.87
2018-05-13T16:59:44.528Z,12.93
2018-05-13T17:02:12.134Z,12.70
2018-05-13T17:04:40.282Z,11.00
2018-05-13T17:07:07.848Z,10.47
2018-05-13T17:09:35.497Z,14.47
2018-05-13T17:12:03.039Z,12.40
2018-05-13T17:14:30.623Z,12.87
2018-05-13T17:16:58.160Z,10.07
2018-05-13T17:19:25.720Z,10.00
2018-05-13T17:21:53.306Z,7.07
2018-05-13T17:24:20.876Z,8.07
2018-05-13T17:26:48.414Z,6.53
2018-05-13T17:29:15.980Z,7.13
2018-05-13T17:31:44.386Z,6.20
2018-05-13T17:34:12.111Z,6.30
2018-05-13T17:36:39.622Z,6.27
2018-05-13T17:39:07.198Z,6.57
2018-05-13T17:41:34.984Z,6.27
2018-05-13T17:44:02.593Z,5.80
2018-05-13T17:46:30.919Z,8.33
2018-05-13T17:48:58.490Z,5.77
2018-05-13T17:51:26.213Z,9.97
2018-05-13T17:53:55.665Z,8.47
2018-05-13T17:56:23.243Z,11.13
2018-05-13T17:58:50.831Z,8.97
2018-05-13T18:01:18.384Z,9.50
2018-05-13T18:03:47.533Z,8.03
2018-05-13T18:06:15.932Z,8.67
2018-05-13T18:08:44.175Z,7.47
2018-05-13T18:11:11.817Z,9.00
2018-05-13T18:13:40.213Z,8.70
2018-05-13T18:16:08.669Z,10.97
2018-05-13T18:18:36.339Z,13.07
2018-05-13T18:21:04.656Z,14.07
2018-05-13T18:23:32.188Z,12.60
2018-05-13T18:26:00.525Z,16.87
2018-05-13T18:28:28.067Z,12.47
2018-05-13T18:30:55.636Z,15.70
2018-05-13T18:33:23.169Z,15.20
2018-05-13T18:35:50.735Z,16.80
2018-05-13T18:38:18.281Z,17.57
2018-05-13T18:40:46.610Z,15.20
2018-05-13T18:43:14.154Z,16.03
2018-05-13T18:45:41.713Z,15.53
2018-05-13T18:48:09.346Z,17.37
2018-05-13T18:50:37.053Z,17.73
2018-05-13T18:53:04.604Z,17.27
2018-05-13T18:55:32.292Z,16.17
2018-05-13T18:58:00.728Z,13.77
2018-05-13T19:00:28.479Z,15.43
2018-05-13T19:02:56.040Z,13.43
2018-05-13T19:05:23.607Z,14.60
2018-05-13T19:07:51.289Z,14.67
2018-05-13T19:10:18.848Z,15.80
2018-05-13T19:12:46.480Z,17.07
2018-05-13T19:15:14.216Z,11.93
2018-05-13T19:17:41.789Z,14.20
2018-05-13T19:20:09.473Z,12.00
2018-05-13T19:22:37.182Z,10.80
2018-05-13T19:25:04.728Z,12.13
2018-05-13T19:27:32.289Z,10.83
2018-05-13T19:30:00.129Z,12.03
2018-05-13T19:32:27.766Z,11.70
2018-05-13T19:34:56.065Z,12.20
2018-05-13T19:37:23.623Z,12.67
2018-05-13T19:39:51.922Z,13.00
2018-05-13T19:42:20.069Z,12.53
2018-05-13T19:44:47.718Z,11.90
2018-05-13T19:47:17.032Z,14.40
2018-05-13T19:49:44.836Z,13.00
2018-05-13T19:52:12.425Z,17.87
2018-05-13T19:54:40.783Z,14.03
2018-05-13T19:57:08.438Z,13.87
2018-05-13T19:59:35.988Z,13.77
2018-05-13T20:02:03.557Z,13.73
2018-05-13T20:04:31.160Z,17.83
2018-05-13T20:06:58.749Z,16.33
2018-05-13T20:09:27.508Z,14.67
2018-05-13T20:11:55.178Z,18.33
2018-05-13T20:14:22.720Z,17.03
2018-05-13T20:16:50.309Z,17.23
2018-05-13T20:19:18.608Z,16.53
2018-05-13T20:21:46.186Z,17.63
2018-05-13T20:24:13.758Z,16.07
2018-05-13T20:26:41.317Z,19.70
2018-05-13T20:29:08.889Z,17.63
2018-05-13T20:31:36.449Z,16.87
2018-05-13T20:34:04.785Z,17.60
2018-05-13T20:36:32.332Z,17.43
2018-05-13T20:39:00.668Z,18.67
2018-05-13T20:41:28.231Z,20.67
2018-05-13T20:43:55.803Z,20.73
2018-05-13T20:46:23.333Z,18.57
2018-05-13T20:48:50.901Z,19.60
2018-05-13T20:51:18.518Z,18.53
2018-05-13T20:53:46.025Z,20.10
2018-05-13T20:56:13.557Z,19.27
2018-05-13T20:58:41.123Z,20.03
2018-05-13T21:01:08.661Z,20.17
2018-05-13T21:03:36.996Z,21.87
2018-05-13T21:06:04.540Z,20.23
2018-05-13T21:08:32.101Z,20.23
2018-05-13T21:10:59.636Z,21.20
2018-05-13T21:13:27.201Z,22.67
2018-05-13T21:15:54.742Z,23.87
2018-05-13T21:18:23.064Z,24.97
2018-05-13T21:20:50.597Z,25.40
2018-05-13T21:23:18.164Z,23.67
2018-05-13T21:25:45.697Z,23.90
2018-05-13T21:28:14.026Z,22.03
2018-05-13T21:30:41.569Z,26.23
2018-05-13T21:33:09.132Z,23.67
2018-05-13T21:35:36.660Z,24.43
2018-05-13T21:38:04.989Z,25.43
2018-05-13T21:40:32.525Z,24.70
2018-05-13T21:43:00.088Z,23.97
2018-05-13T21:45:27.617Z,24.97
2018-05-13T21:47:55.920Z,28.77
2018-05-13T21:50:23.485Z,25.13
2018-05-13T21:52:51.028Z,25.63
2018-05-13T21:55:18.588Z,24.90
2018-05-13T21:57:46.122Z,26.87
2018-05-13T22:00:14.466Z,27.03
2018-05-13T22:02:42.002Z,25.33
2018-05-13T22:05:09.561Z,27.53
2018-05-13T22:07:37.092Z,28.03
2018-05-13T22:10:04.664Z,25.13
2018-05-13T22:12:32.201Z,25.20
2018-05-13T22:15:00.533Z,25.13
2018-05-13T22:17:28.080Z,25.57
2018-05-13T22:19:55.666Z,29.17
2018-05-13T22:22:23.206Z,26.13
2018-05-13T22:24:50.763Z,24.20
2018-05-13T22:27:18.297Z,25.80
2018-05-13T22:29:46.625Z,25.07
2018-05-13T22:32:14.170Z,27.63
2018-05-13T22:34:41.733Z,25.77
2018-05-13T22:37:09.266Z,28.80
2018-05-13T22:39:36.824Z,26.17
2018-05-13T22:42:04.369Z,25.53
2018-05-13T22:44:32.702Z,28.00
2018-05-13T22:47:00.233Z,28.23
2018-05-13T22:49:27.789Z,27.93
2018-05-13T22:51:55.321Z,24.63
2018-05-13T22:54:23.657Z,23.57
2018-05-13T22:56:51.208Z,28.83
2018-05-13T22:59:18.776Z,27.47
2018-05-13T23:01:46.323Z,28.83
2018-05-13T23:04:13.888Z,25.07
2018-05-13T23:06:41.430Z,23.27
2018-05-13T23:09:09.023Z,24.20
2018-05-13T23:11:36.545Z,24.37
2018-05-13T23:14:04.113Z,23.40
2018-05-13T23:16:31.676Z,24.00
2018-05-13T23:18:59.214Z,23.57
2018-05-13T23:21:27.545Z,25.60
2018-05-13T23:23:55.079Z,21.77
2018-05-13T23:26:22.637Z,23.47
2018-05-13T23:28:50.165Z,25.50
2018-05-13T23:31:18.496Z,27.60
2018-05-13T23:33:46.029Z,26.10
2018-05-13T23:36:13.597Z,29.23
2018-05-13T23:38:41.129Z,24.53
2018-05-13T23:41:09.483Z,25.37
2018-05-13T23:43:37.031Z,23.10
2018-05-13T23:46:04.600Z,24.23
2018-05-13T23:48:32.161Z,23.57
2018-05-13T23:50:59.733Z,21.93
2018-05-13T23:53:27.267Z,25.97
2018-05-13T23:55:54.824Z,25.13
2018-05-13T23:58:22.352Z,26.87
